sensor_id;sensor_type;location;lat;lon;timestamp;P1;durP1;ratioP1;P2;durP2;ratioP2
7128;SDS011;3606;52.930;8.644;2023-12-22T00:01:11;9.23;;;2.30;;
7128;SDS011;3606;52.930;8.644;2023-12-22T00:03:40;8.50;;;2.50;;
7128;SDS011;3606;52.930;8.644;2023-12-22T00:06:06;7.47;;;2.60;;
7128;SDS011;3606;52.930;8.644;2023-12-22T00:08:32;11.40;;;2.57;;
7128;SDS011;3606;52.930;8.644;2023-12-22T00:10:57;4.53;;;2.07;;
7128;SDS011;3606;52.930;8.644;2023-12-22T00:13:24;5.67;;;2.03;;
7128;SDS011;3606;52.930;8.644;2023-12-22T00:15:49;5.20;;;1.83;;
7128;SDS011;3606;52.930;8.644;2023-12-22T00:18:15;8.13;;;2.07;;
7128;SDS011;3606;52.930;8.644;2023-12-22T00:20:40;7.23;;;2.40;;
7128;SDS011;3606;52.930;8.644;2023-12-22T00:23:06;5.10;;;2.53;;
7128;SDS011;3606;52.930;8.644;2023-12-22T00:25:31;6.57;;;2.30;;
7128;SDS011;3606;52.930;8.644;2023-12-22T00:27:57;10.70;;;2.33;;
7128;SDS011;3606;52.930;8.644;2023-12-22T00:30:22;9.97;;;2.50;;
7128;SDS011;3606;52.930;8.644;2023-12-22T00:32:49;11.77;;;2.73;;
7128;SDS011;3606;52.930;8.644;2023-12-22T00:35:15;4.97;;;1.93;;
7128;SDS011;3606;52.930;8.644;2023-12-22T00:37:40;3.40;;;1.80;;
7128;SDS011;3606;52.930;8.644;2023-12-22T00:40:07;7.77;;;1.70;;
7128;SDS011;3606;52.930;8.644;2023-12-22T00:42:34;6.77;;;2.53;;
7128;SDS011;3606;52.930;8.644;2023-12-22T00:45:00;5.93;;;1.50;;
7128;SDS011;3606;52.930;8.644;2023-12-22T00:47:25;5.27;;;1.37;;
7128;SDS011;3606;52.930;8.644;2023-12-22T00:49:51;6.47;;;2.13;;
7128;SDS011;3606;52.930;8.644;2023-12-22T00:52:17;4.43;;;1.53;;
7128;SDS011;3606;52.930;8.644;2023-12-22T00:54:42;10.23;;;2.07;;
7128;SDS011;3606;52.930;8.644;2023-12-22T00:57:08;9.90;;;2.40;;
7128;SDS011;3606;52.930;8.644;2023-12-22T00:59:34;7.37;;;2.43;;
7128;SDS011;3606;52.930;8.644;2023-12-22T01:01:59;8.63;;;2.77;;
7128;SDS011;3606;52.930;8.644;2023-12-22T01:04:25;9.03;;;2.23;;
7128;SDS011;3606;52.930;8.644;2023-12-22T01:06:50;14.17;;;3.43;;
7128;SDS011;3606;52.930;8.644;2023-12-22T01:09:18;14.20;;;3.30;;
7128;SDS011;3606;52.930;8.644;2023-12-22T01:11:44;12.40;;;3.17;;
7128;SDS011;3606;52.930;8.644;2023-12-22T01:14:10;15.10;;;3.60;;
7128;SDS011;3606;52.930;8.644;2023-12-22T01:16:38;11.90;;;3.37;;
7128;SDS011;3606;52.930;8.644;2023-12-22T01:19:04;12.90;;;3.50;;
7128;SDS011;3606;52.930;8.644;2023-12-22T01:21:30;12.20;;;3.13;;
7128;SDS011;3606;52.930;8.644;2023-12-22T01:23:56;11.63;;;4.33;;
7128;SDS011;3606;52.930;8.644;2023-12-22T01:26:21;12.90;;;3.63;;
7128;SDS011;3606;52.930;8.644;2023-12-22T01:28:47;15.90;;;3.73;;
7128;SDS011;3606;52.930;8.644;2023-12-22T01:31:12;24.50;;;4.37;;
7128;SDS011;3606;52.930;8.644;2023-12-22T01:33:38;21.17;;;4.20;;
7128;SDS011;3606;52.930;8.644;2023-12-22T01:36:04;20.83;;;4.50;;
7128;SDS011;3606;52.930;8.644;2023-12-22T01:38:30;18.17;;;3.93;;
7128;SDS011;3606;52.930;8.644;2023-12-22T01:40:55;15.20;;;3.67;;
7128;SDS011;3606;52.930;8.644;2023-12-22T01:43:21;8.93;;;3.20;;
7128;SDS011;3606;52.930;8.644;2023-12-22T01:45:56;12.23;;;3.53;;
7128;SDS011;3606;52.930;8.644;2023-12-22T01:48:26;6.87;;;2.70;;
7128;SDS011;3606;52.930;8.644;2023-12-22T01:50:53;7.07;;;1.97;;
7128;SDS011;3606;52.930;8.644;2023-12-22T01:53:20;11.03;;;2.80;;
7128;SDS011;3606;52.930;8.644;2023-12-22T01:55:50;5.00;;;2.33;;
7128;SDS011;3606;52.930;8.644;2023-12-22T01:58:17;10.47;;;2.97;;
7128;SDS011;3606;52.930;8.644;2023-12-22T02:00:44;5.17;;;2.13;;
7128;SDS011;3606;52.930;8.644;2023-12-22T02:03:10;6.87;;;2.33;;
7128;SDS011;3606;52.930;8.644;2023-12-22T02:05:36;9.23;;;2.90;;
7128;SDS011;3606;52.930;8.644;2023-12-22T02:08:01;14.27;;;2.80;;
7128;SDS011;3606;52.930;8.644;2023-12-22T02:10:27;7.50;;;2.10;;
7128;SDS011;3606;52.930;8.644;2023-12-22T02:12:53;5.37;;;2.50;;
7128;SDS011;3606;52.930;8.644;2023-12-22T02:15:19;14.90;;;3.00;;
7128;SDS011;3606;52.930;8.644;2023-12-22T02:17:48;9.87;;;2.73;;
7128;SDS011;3606;52.930;8.644;2023-12-22T02:20:20;7.23;;;2.70;;
7128;SDS011;3606;52.930;8.644;2023-12-22T02:22:50;10.93;;;3.27;;
7128;SDS011;3606;52.930;8.644;2023-12-22T02:25:17;9.87;;;2.27;;
7128;SDS011;3606;52.930;8.644;2023-12-22T02:27:53;8.93;;;2.70;;
7128;SDS011;3606;52.930;8.644;2023-12-22T02:30:26;8.00;;;3.27;;
7128;SDS011;3606;52.930;8.644;2023-12-22T02:32:56;10.73;;;2.70;;
7128;SDS011;3606;52.930;8.644;2023-12-22T02:35:26;15.40;;;3.07;;
7128;SDS011;3606;52.930;8.644;2023-12-22T02:37:53;11.93;;;2.83;;
7128;SDS011;3606;52.930;8.644;2023-12-22T02:40:22;11.53;;;3.27;;
7128;SDS011;3606;52.930;8.644;2023-12-22T02:42:49;10.13;;;3.23;;
7128;SDS011;3606;52.930;8.644;2023-12-22T02:45:15;13.67;;;3.30;;
7128;SDS011;3606;52.930;8.644;2023-12-22T02:47:42;15.23;;;3.10;;
7128;SDS011;3606;52.930;8.644;2023-12-22T02:50:08;11.03;;;3.10;;
7128;SDS011;3606;52.930;8.644;2023-12-22T02:52:34;9.57;;;3.47;;
7128;SDS011;3606;52.930;8.644;2023-12-22T02:55:00;14.93;;;3.37;;
7128;SDS011;3606;52.930;8.644;2023-12-22T02:57:29;17.23;;;4.13;;
7128;SDS011;3606;52.930;8.644;2023-12-22T02:59:55;16.13;;;3.80;;
7128;SDS011;3606;52.930;8.644;2023-12-22T03:02:21;17.50;;;3.73;;
7128;SDS011;3606;52.930;8.644;2023-12-22T03:04:46;10.57;;;3.77;;
7128;SDS011;3606;52.930;8.644;2023-12-22T03:07:12;19.77;;;4.40;;
7128;SDS011;3606;52.930;8.644;2023-12-22T03:09:38;14.80;;;3.50;;
7128;SDS011;3606;52.930;8.644;2023-12-22T03:12:05;18.07;;;3.90;;
7128;SDS011;3606;52.930;8.644;2023-12-22T03:14:32;21.13;;;3.97;;
7128;SDS011;3606;52.930;8.644;2023-12-22T03:17:01;11.67;;;3.47;;
7128;SDS011;3606;52.930;8.644;2023-12-22T03:19:28;15.80;;;3.60;;
7128;SDS011;3606;52.930;8.644;2023-12-22T03:21:53;20.40;;;4.47;;
7128;SDS011;3606;52.930;8.644;2023-12-22T03:24:19;15.03;;;3.70;;
7128;SDS011;3606;52.930;8.644;2023-12-22T03:26:46;13.73;;;3.50;;
7128;SDS011;3606;52.930;8.644;2023-12-22T03:29:11;17.60;;;3.90;;
7128;SDS011;3606;52.930;8.644;2023-12-22T03:31:37;14.93;;;3.10;;
7128;SDS011;3606;52.930;8.644;2023-12-22T03:34:02;19.37;;;3.97;;
7128;SDS011;3606;52.930;8.644;2023-12-22T03:36:28;15.57;;;3.60;;
7128;SDS011;3606;52.930;8.644;2023-12-22T03:38:54;15.40;;;3.00;;
7128;SDS011;3606;52.930;8.644;2023-12-22T03:41:19;12.50;;;3.80;;
7128;SDS011;3606;52.930;8.644;2023-12-22T03:43:45;13.70;;;3.27;;
7128;SDS011;3606;52.930;8.644;2023-12-22T03:46:11;16.93;;;3.53;;
7128;SDS011;3606;52.930;8.644;2023-12-22T03:48:36;14.40;;;3.77;;
7128;SDS011;3606;52.930;8.644;2023-12-22T03:51:02;13.33;;;3.40;;
7128;SDS011;3606;52.930;8.644;2023-12-22T03:53:28;11.50;;;3.70;;
7128;SDS011;3606;52.930;8.644;2023-12-22T03:55:53;12.40;;;3.10;;
7128;SDS011;3606;52.930;8.644;2023-12-22T03:58:19;14.80;;;3.37;;
7128;SDS011;3606;52.930;8.644;2023-12-22T04:00:45;10.20;;;2.93;;
7128;SDS011;3606;52.930;8.644;2023-12-22T04:03:11;22.67;;;3.67;;
7128;SDS011;3606;52.930;8.644;2023-12-22T04:05:36;14.20;;;3.87;;
7128;SDS011;3606;52.930;8.644;2023-12-22T04:08:02;12.63;;;3.00;;
7128;SDS011;3606;52.930;8.644;2023-12-22T04:10:28;12.57;;;2.80;;
7128;SDS011;3606;52.930;8.644;2023-12-22T04:12:53;18.50;;;3.47;;
7128;SDS011;3606;52.930;8.644;2023-12-22T04:15:19;14.73;;;3.80;;
7128;SDS011;3606;52.930;8.644;2023-12-22T04:17:44;17.30;;;3.90;;
7128;SDS011;3606;52.930;8.644;2023-12-22T04:20:10;16.13;;;4.03;;
7128;SDS011;3606;52.930;8.644;2023-12-22T04:22:37;17.40;;;4.13;;
7128;SDS011;3606;52.930;8.644;2023-12-22T04:25:03;19.80;;;4.37;;
7128;SDS011;3606;52.930;8.644;2023-12-22T04:27:28;14.43;;;4.97;;
7128;SDS011;3606;52.930;8.644;2023-12-22T04:29:54;18.17;;;4.50;;
7128;SDS011;3606;52.930;8.644;2023-12-22T04:32:20;21.80;;;4.40;;
7128;SDS011;3606;52.930;8.644;2023-12-22T04:34:45;19.50;;;4.10;;
7128;SDS011;3606;52.930;8.644;2023-12-22T04:37:11;19.30;;;3.97;;
7128;SDS011;3606;52.930;8.644;2023-12-22T04:39:36;18.77;;;4.10;;
7128;SDS011;3606;52.930;8.644;2023-12-22T04:42:02;20.03;;;4.80;;
7128;SDS011;3606;52.930;8.644;2023-12-22T04:44:28;25.27;;;5.33;;
7128;SDS011;3606;52.930;8.644;2023-12-22T04:46:53;26.10;;;4.93;;
7128;SDS011;3606;52.930;8.644;2023-12-22T04:49:19;20.33;;;4.43;;
7128;SDS011;3606;52.930;8.644;2023-12-22T04:51:44;15.70;;;4.67;;
7128;SDS011;3606;52.930;8.644;2023-12-22T04:54:10;15.87;;;4.37;;
7128;SDS011;3606;52.930;8.644;2023-12-22T04:56:35;16.47;;;3.73;;
7128;SDS011;3606;52.930;8.644;2023-12-22T04:59:01;19.57;;;4.00;;
7128;SDS011;3606;52.930;8.644;2023-12-22T05:01:27;19.87;;;3.77;;
7128;SDS011;3606;52.930;8.644;2023-12-22T05:03:52;19.47;;;4.93;;
7128;SDS011;3606;52.930;8.644;2023-12-22T05:06:19;13.43;;;3.97;;
7128;SDS011;3606;52.930;8.644;2023-12-22T05:08:45;12.60;;;4.17;;
7128;SDS011;3606;52.930;8.644;2023-12-22T05:11:11;20.87;;;3.63;;
7128;SDS011;3606;52.930;8.644;2023-12-22T05:13:37;25.63;;;4.50;;
7128;SDS011;3606;52.930;8.644;2023-12-22T05:16:03;11.77;;;2.83;;
7128;SDS011;3606;52.930;8.644;2023-12-22T05:18:32;13.70;;;3.00;;
7128;SDS011;3606;52.930;8.644;2023-12-22T05:20:57;9.67;;;3.50;;
7128;SDS011;3606;52.930;8.644;2023-12-22T05:23:23;13.27;;;2.40;;
7128;SDS011;3606;52.930;8.644;2023-12-22T05:25:48;9.17;;;2.80;;
7128;SDS011;3606;52.930;8.644;2023-12-22T05:28:14;8.33;;;2.17;;
7128;SDS011;3606;52.930;8.644;2023-12-22T05:30:39;3.63;;;1.23;;
7128;SDS011;3606;52.930;8.644;2023-12-22T05:33:05;5.63;;;1.70;;
7128;SDS011;3606;52.930;8.644;2023-12-22T05:35:31;6.47;;;1.67;;
7128;SDS011;3606;52.930;8.644;2023-12-22T05:37:56;4.90;;;1.97;;
7128;SDS011;3606;52.930;8.644;2023-12-22T05:40:22;4.53;;;1.80;;
7128;SDS011;3606;52.930;8.644;2023-12-22T05:42:47;4.10;;;1.13;;
7128;SDS011;3606;52.930;8.644;2023-12-22T05:45:14;4.20;;;1.63;;
7128;SDS011;3606;52.930;8.644;2023-12-22T05:47:40;4.03;;;1.37;;
7128;SDS011;3606;52.930;8.644;2023-12-22T05:50:06;2.00;;;1.37;;
7128;SDS011;3606;52.930;8.644;2023-12-22T05:52:33;5.03;;;1.63;;
7128;SDS011;3606;52.930;8.644;2023-12-22T05:54:58;4.10;;;2.37;;
7128;SDS011;3606;52.930;8.644;2023-12-22T05:57:25;4.43;;;1.90;;
7128;SDS011;3606;52.930;8.644;2023-12-22T05:59:51;9.83;;;2.13;;
7128;SDS011;3606;52.930;8.644;2023-12-22T06:02:16;9.53;;;2.40;;
7128;SDS011;3606;52.930;8.644;2023-12-22T06:04:42;9.20;;;2.20;;
7128;SDS011;3606;52.930;8.644;2023-12-22T06:07:08;6.97;;;2.80;;
7128;SDS011;3606;52.930;8.644;2023-12-22T06:09:35;8.77;;;2.77;;
7128;SDS011;3606;52.930;8.644;2023-12-22T06:12:00;12.13;;;2.40;;
7128;SDS011;3606;52.930;8.644;2023-12-22T06:14:26;11.40;;;3.57;;
7128;SDS011;3606;52.930;8.644;2023-12-22T06:16:52;8.67;;;2.63;;
7128;SDS011;3606;52.930;8.644;2023-12-22T06:19:18;12.80;;;3.20;;
7128;SDS011;3606;52.930;8.644;2023-12-22T06:21:44;9.77;;;3.07;;
7128;SDS011;3606;52.930;8.644;2023-12-22T06:24:10;13.83;;;3.37;;
7128;SDS011;3606;52.930;8.644;2023-12-22T06:26:35;16.60;;;3.73;;
7128;SDS011;3606;52.930;8.644;2023-12-22T06:29:01;9.17;;;2.90;;
7128;SDS011;3606;52.930;8.644;2023-12-22T06:31:28;14.07;;;3.43;;
7128;SDS011;3606;52.930;8.644;2023-12-22T06:33:54;15.27;;;3.60;;
7128;SDS011;3606;52.930;8.644;2023-12-22T06:38:50;11.40;;;3.00;;
7128;SDS011;3606;52.930;8.644;2023-12-22T06:41:22;14.27;;;3.63;;
7128;SDS011;3606;52.930;8.644;2023-12-22T06:43:49;15.63;;;3.60;;
7128;SDS011;3606;52.930;8.644;2023-12-22T06:46:19;17.27;;;4.20;;
7128;SDS011;3606;52.930;8.644;2023-12-22T06:48:53;27.67;;;4.47;;
7128;SDS011;3606;52.930;8.644;2023-12-22T06:51:26;22.37;;;4.47;;
7128;SDS011;3606;52.930;8.644;2023-12-22T06:53:53;19.97;;;4.73;;
7128;SDS011;3606;52.930;8.644;2023-12-22T06:56:25;17.50;;;4.53;;
7128;SDS011;3606;52.930;8.644;2023-12-22T06:58:53;23.23;;;4.70;;
7128;SDS011;3606;52.930;8.644;2023-12-22T07:01:24;13.30;;;4.03;;
7128;SDS011;3606;52.930;8.644;2023-12-22T07:03:51;15.00;;;4.63;;
7128;SDS011;3606;52.930;8.644;2023-12-22T07:06:17;18.67;;;4.87;;
7128;SDS011;3606;52.930;8.644;2023-12-22T07:08:44;18.67;;;5.23;;
7128;SDS011;3606;52.930;8.644;2023-12-22T07:11:10;17.53;;;4.27;;
7128;SDS011;3606;52.930;8.644;2023-12-22T07:13:36;22.40;;;5.17;;
7128;SDS011;3606;52.930;8.644;2023-12-22T07:16:02;18.57;;;4.67;;
7128;SDS011;3606;52.930;8.644;2023-12-22T07:18:28;24.47;;;5.10;;
7128;SDS011;3606;52.930;8.644;2023-12-22T07:20:56;26.13;;;5.50;;
7128;SDS011;3606;52.930;8.644;2023-12-22T07:23:25;21.70;;;5.10;;
7128;SDS011;3606;52.930;8.644;2023-12-22T07:25:50;18.47;;;4.77;;
7128;SDS011;3606;52.930;8.644;2023-12-22T07:28:16;18.20;;;4.73;;
7128;SDS011;3606;52.930;8.644;2023-12-22T07:30:41;26.23;;;5.23;;
7128;SDS011;3606;52.930;8.644;2023-12-22T07:33:07;14.67;;;4.73;;
7128;SDS011;3606;52.930;8.644;2023-12-22T07:35:33;19.83;;;5.53;;
7128;SDS011;3606;52.930;8.644;2023-12-22T07:37:59;25.50;;;4.67;;
7128;SDS011;3606;52.930;8.644;2023-12-22T07:40:25;23.70;;;5.13;;
7128;SDS011;3606;52.930;8.644;2023-12-22T07:42:50;18.87;;;5.00;;
7128;SDS011;3606;52.930;8.644;2023-12-22T07:45:16;25.23;;;4.90;;
7128;SDS011;3606;52.930;8.644;2023-12-22T07:47:42;22.53;;;5.03;;
7128;SDS011;3606;52.930;8.644;2023-12-22T07:50:07;20.97;;;5.40;;
7128;SDS011;3606;52.930;8.644;2023-12-22T07:52:34;22.73;;;5.37;;
7128;SDS011;3606;52.930;8.644;2023-12-22T07:55:07;22.87;;;4.60;;
7128;SDS011;3606;52.930;8.644;2023-12-22T07:57:36;23.13;;;5.40;;
7128;SDS011;3606;52.930;8.644;2023-12-22T08:00:04;20.80;;;4.50;;
7128;SDS011;3606;52.930;8.644;2023-12-22T08:02:30;23.23;;;5.50;;
7128;SDS011;3606;52.930;8.644;2023-12-22T08:04:55;23.00;;;4.83;;
7128;SDS011;3606;52.930;8.644;2023-12-22T08:07:21;20.30;;;4.70;;
7128;SDS011;3606;52.930;8.644;2023-12-22T08:09:46;20.37;;;4.90;;
7128;SDS011;3606;52.930;8.644;2023-12-22T08:12:12;15.90;;;4.90;;
7128;SDS011;3606;52.930;8.644;2023-12-22T08:14:38;20.07;;;4.60;;
7128;SDS011;3606;52.930;8.644;2023-12-22T08:17:03;16.90;;;4.73;;
7128;SDS011;3606;52.930;8.644;2023-12-22T08:19:29;18.97;;;4.77;;
7128;SDS011;3606;52.930;8.644;2023-12-22T08:21:55;30.90;;;5.60;;
7128;SDS011;3606;52.930;8.644;2023-12-22T08:24:21;18.73;;;4.47;;
7128;SDS011;3606;52.930;8.644;2023-12-22T08:26:46;13.43;;;3.93;;
7128;SDS011;3606;52.930;8.644;2023-12-22T08:29:13;23.33;;;4.73;;
7128;SDS011;3606;52.930;8.644;2023-12-22T08:31:38;24.63;;;5.40;;
7128;SDS011;3606;52.930;8.644;2023-12-22T08:34:04;16.43;;;3.93;;
7128;SDS011;3606;52.930;8.644;2023-12-22T08:36:30;18.17;;;3.93;;
7128;SDS011;3606;52.930;8.644;2023-12-22T08:38:57;17.33;;;4.43;;
7128;SDS011;3606;52.930;8.644;2023-12-22T08:41:22;19.17;;;4.60;;
7128;SDS011;3606;52.930;8.644;2023-12-22T08:43:48;17.07;;;4.47;;
7128;SDS011;3606;52.930;8.644;2023-12-22T08:46:14;19.93;;;4.27;;
7128;SDS011;3606;52.930;8.644;2023-12-22T08:48:40;20.20;;;4.57;;
7128;SDS011;3606;52.930;8.644;2023-12-22T08:51:05;26.10;;;4.50;;
7128;SDS011;3606;52.930;8.644;2023-12-22T08:53:32;23.60;;;4.40;;
7128;SDS011;3606;52.930;8.644;2023-12-22T08:56:01;23.47;;;4.83;;
7128;SDS011;3606;52.930;8.644;2023-12-22T08:58:28;18.60;;;4.13;;
7128;SDS011;3606;52.930;8.644;2023-12-22T09:00:56;8.93;;;2.90;;
7128;SDS011;3606;52.930;8.644;2023-12-22T09:03:22;8.83;;;3.27;;
7128;SDS011;3606;52.930;8.644;2023-12-22T09:05:48;13.77;;;3.53;;
7128;SDS011;3606;52.930;8.644;2023-12-22T09:08:14;11.57;;;3.10;;
7128;SDS011;3606;52.930;8.644;2023-12-22T09:10:39;12.13;;;3.13;;
7128;SDS011;3606;52.930;8.644;2023-12-22T09:13:05;8.93;;;3.10;;
7128;SDS011;3606;52.930;8.644;2023-12-22T09:15:31;15.17;;;3.03;;
7128;SDS011;3606;52.930;8.644;2023-12-22T09:17:57;10.87;;;2.50;;
7128;SDS011;3606;52.930;8.644;2023-12-22T09:20:22;10.33;;;2.63;;
7128;SDS011;3606;52.930;8.644;2023-12-22T09:22:48;9.33;;;2.77;;
7128;SDS011;3606;52.930;8.644;2023-12-22T09:25:14;8.63;;;2.27;;
7128;SDS011;3606;52.930;8.644;2023-12-22T09:27:39;10.13;;;2.60;;
7128;SDS011;3606;52.930;8.644;2023-12-22T09:30:05;17.60;;;2.83;;
7128;SDS011;3606;52.930;8.644;2023-12-22T09:32:32;13.27;;;2.83;;
7128;SDS011;3606;52.930;8.644;2023-12-22T09:34:58;10.63;;;2.90;;
7128;SDS011;3606;52.930;8.644;2023-12-22T09:37:25;12.53;;;3.17;;
7128;SDS011;3606;52.930;8.644;2023-12-22T09:39:51;6.23;;;2.67;;
7128;SDS011;3606;52.930;8.644;2023-12-22T09:42:17;8.60;;;2.83;;
7128;SDS011;3606;52.930;8.644;2023-12-22T09:44:42;8.80;;;2.73;;
7128;SDS011;3606;52.930;8.644;2023-12-22T09:47:09;6.53;;;2.63;;
7128;SDS011;3606;52.930;8.644;2023-12-22T09:49:37;8.67;;;2.90;;
7128;SDS011;3606;52.930;8.644;2023-12-22T09:52:04;4.87;;;2.10;;
7128;SDS011;3606;52.930;8.644;2023-12-22T09:54:32;11.80;;;2.47;;
7128;SDS011;3606;52.930;8.644;2023-12-22T09:56:59;9.87;;;2.57;;
7128;SDS011;3606;52.930;8.644;2023-12-22T09:59:25;10.33;;;3.10;;
7128;SDS011;3606;52.930;8.644;2023-12-22T10:01:53;12.97;;;3.27;;
7128;SDS011;3606;52.930;8.644;2023-12-22T10:04:20;19.33;;;3.40;;
7128;SDS011;3606;52.930;8.644;2023-12-22T10:06:47;13.60;;;2.87;;
7128;SDS011;3606;52.930;8.644;2023-12-22T10:09:13;13.73;;;3.07;;
7128;SDS011;3606;52.930;8.644;2023-12-22T10:11:40;12.20;;;2.87;;
7128;SDS011;3606;52.930;8.644;2023-12-22T10:14:09;12.47;;;2.83;;
7128;SDS011;3606;52.930;8.644;2023-12-22T10:16:35;16.83;;;2.80;;
7128;SDS011;3606;52.930;8.644;2023-12-22T10:19:01;7.70;;;2.97;;
7128;SDS011;3606;52.930;8.644;2023-12-22T10:21:28;9.53;;;2.83;;
7128;SDS011;3606;52.930;8.644;2023-12-22T10:23:56;11.17;;;2.43;;
7128;SDS011;3606;52.930;8.644;2023-12-22T10:26:22;13.10;;;3.47;;
7128;SDS011;3606;52.930;8.644;2023-12-22T10:28:47;11.87;;;3.13;;
7128;SDS011;3606;52.930;8.644;2023-12-22T10:31:16;11.87;;;3.57;;
7128;SDS011;3606;52.930;8.644;2023-12-22T10:33:42;10.97;;;3.70;;
7128;SDS011;3606;52.930;8.644;2023-12-22T10:36:08;15.83;;;3.60;;
7128;SDS011;3606;52.930;8.644;2023-12-22T10:38:35;20.77;;;4.10;;
7128;SDS011;3606;52.930;8.644;2023-12-22T10:41:01;19.33;;;3.90;;
7128;SDS011;3606;52.930;8.644;2023-12-22T10:43:28;14.30;;;3.70;;
7128;SDS011;3606;52.930;8.644;2023-12-22T10:45:54;15.10;;;3.87;;
7128;SDS011;3606;52.930;8.644;2023-12-22T10:48:20;13.90;;;3.73;;
7128;SDS011;3606;52.930;8.644;2023-12-22T10:50:48;17.07;;;3.77;;
7128;SDS011;3606;52.930;8.644;2023-12-22T10:53:14;16.30;;;3.63;;
7128;SDS011;3606;52.930;8.644;2023-12-22T10:55:40;15.97;;;3.80;;
7128;SDS011;3606;52.930;8.644;2023-12-22T10:58:05;19.67;;;3.97;;
7128;SDS011;3606;52.930;8.644;2023-12-22T11:00:35;17.30;;;4.10;;
7128;SDS011;3606;52.930;8.644;2023-12-22T11:03:06;13.73;;;3.53;;
7128;SDS011;3606;52.930;8.644;2023-12-22T11:05:36;18.67;;;3.67;;
7128;SDS011;3606;52.930;8.644;2023-12-22T11:08:04;12.43;;;3.97;;
7128;SDS011;3606;52.930;8.644;2023-12-22T11:10:33;11.37;;;3.37;;
7128;SDS011;3606;52.930;8.644;2023-12-22T11:13:01;16.03;;;4.33;;
7128;SDS011;3606;52.930;8.644;2023-12-22T11:15:28;10.87;;;3.83;;
7128;SDS011;3606;52.930;8.644;2023-12-22T11:17:54;17.63;;;4.47;;
7128;SDS011;3606;52.930;8.644;2023-12-22T11:20:22;20.30;;;3.90;;
7128;SDS011;3606;52.930;8.644;2023-12-22T11:22:49;17.17;;;4.27;;
7128;SDS011;3606;52.930;8.644;2023-12-22T11:25:16;16.73;;;3.77;;
7128;SDS011;3606;52.930;8.644;2023-12-22T11:27:43;17.17;;;3.57;;
7128;SDS011;3606;52.930;8.644;2023-12-22T11:30:12;11.57;;;3.60;;
7128;SDS011;3606;52.930;8.644;2023-12-22T11:32:39;17.53;;;4.53;;
7128;SDS011;3606;52.930;8.644;2023-12-22T11:35:06;9.97;;;3.77;;
7128;SDS011;3606;52.930;8.644;2023-12-22T11:37:33;11.70;;;3.03;;
7128;SDS011;3606;52.930;8.644;2023-12-22T11:40:01;14.87;;;3.87;;
7128;SDS011;3606;52.930;8.644;2023-12-22T11:42:28;15.80;;;3.27;;
7128;SDS011;3606;52.930;8.644;2023-12-22T11:44:57;13.97;;;4.17;;
7128;SDS011;3606;52.930;8.644;2023-12-22T11:47:24;14.73;;;3.97;;
7128;SDS011;3606;52.930;8.644;2023-12-22T11:49:50;12.53;;;3.63;;
7128;SDS011;3606;52.930;8.644;2023-12-22T11:52:17;17.33;;;4.03;;
7128;SDS011;3606;52.930;8.644;2023-12-22T11:54:50;13.73;;;3.70;;
7128;SDS011;3606;52.930;8.644;2023-12-22T11:57:33;13.23;;;3.60;;
7128;SDS011;3606;52.930;8.644;2023-12-22T12:00:09;16.00;;;3.80;;
7128;SDS011;3606;52.930;8.644;2023-12-22T12:02:56;17.73;;;3.93;;
7128;SDS011;3606;52.930;8.644;2023-12-22T12:05:22;15.47;;;3.33;;
7128;SDS011;3606;52.930;8.644;2023-12-22T12:07:48;16.03;;;3.60;;
7128;SDS011;3606;52.930;8.644;2023-12-22T12:13:11;11.97;;;3.67;;
7128;SDS011;3606;52.930;8.644;2023-12-22T12:15:40;15.10;;;4.10;;
7128;SDS011;3606;52.930;8.644;2023-12-22T12:18:07;14.67;;;3.77;;
7128;SDS011;3606;52.930;8.644;2023-12-22T12:20:33;24.40;;;4.03;;
7128;SDS011;3606;52.930;8.644;2023-12-22T12:23:02;10.50;;;3.83;;
7128;SDS011;3606;52.930;8.644;2023-12-22T12:25:30;17.00;;;3.73;;
7128;SDS011;3606;52.930;8.644;2023-12-22T12:28:01;17.33;;;3.90;;
7128;SDS011;3606;52.930;8.644;2023-12-22T12:30:27;15.03;;;4.03;;
7128;SDS011;3606;52.930;8.644;2023-12-22T12:32:53;17.67;;;3.90;;
7128;SDS011;3606;52.930;8.644;2023-12-22T12:35:19;8.47;;;3.47;;
7128;SDS011;3606;52.930;8.644;2023-12-22T12:37:48;12.37;;;3.20;;
7128;SDS011;3606;52.930;8.644;2023-12-22T12:40:16;17.33;;;3.47;;
7128;SDS011;3606;52.930;8.644;2023-12-22T12:42:48;11.90;;;2.90;;
7128;SDS011;3606;52.930;8.644;2023-12-22T12:45:15;13.53;;;3.30;;
7128;SDS011;3606;52.930;8.644;2023-12-22T12:47:54;10.77;;;3.40;;
7128;SDS011;3606;52.930;8.644;2023-12-22T12:50:23;11.33;;;3.47;;
7128;SDS011;3606;52.930;8.644;2023-12-22T12:52:51;10.50;;;2.87;;
7128;SDS011;3606;52.930;8.644;2023-12-22T12:55:17;14.00;;;3.23;;
7128;SDS011;3606;52.930;8.644;2023-12-22T12:57:43;12.60;;;3.40;;
7128;SDS011;3606;52.930;8.644;2023-12-22T13:00:09;11.63;;;3.40;;
7128;SDS011;3606;52.930;8.644;2023-12-22T13:02:35;19.97;;;4.13;;
7128;SDS011;3606;52.930;8.644;2023-12-22T13:05:01;13.27;;;3.20;;
7128;SDS011;3606;52.930;8.644;2023-12-22T13:07:29;12.83;;;3.13;;
7128;SDS011;3606;52.930;8.644;2023-12-22T13:09:55;13.47;;;3.07;;
7128;SDS011;3606;52.930;8.644;2023-12-22T13:12:22;16.77;;;3.27;;
7128;SDS011;3606;52.930;8.644;2023-12-22T13:14:48;13.20;;;3.30;;
7128;SDS011;3606;52.930;8.644;2023-12-22T13:17:14;8.00;;;3.03;;
7128;SDS011;3606;52.930;8.644;2023-12-22T13:19:40;15.47;;;3.23;;
7128;SDS011;3606;52.930;8.644;2023-12-22T13:22:06;13.37;;;3.20;;
7128;SDS011;3606;52.930;8.644;2023-12-22T13:24:32;8.90;;;3.00;;
7128;SDS011;3606;52.930;8.644;2023-12-22T13:27:02;8.20;;;2.67;;
7128;SDS011;3606;52.930;8.644;2023-12-22T13:29:30;16.17;;;3.20;;
7128;SDS011;3606;52.930;8.644;2023-12-22T13:32:14;14.70;;;3.50;;
7128;SDS011;3606;52.930;8.644;2023-12-22T13:34:46;18.03;;;2.87;;
7128;SDS011;3606;52.930;8.644;2023-12-22T13:37:16;16.07;;;3.93;;
7128;SDS011;3606;52.930;8.644;2023-12-22T13:39:41;14.20;;;3.33;;
7128;SDS011;3606;52.930;8.644;2023-12-22T13:42:13;14.27;;;3.00;;
7128;SDS011;3606;52.930;8.644;2023-12-22T13:44:44;9.73;;;2.57;;
7128;SDS011;3606;52.930;8.644;2023-12-22T13:47:15;10.77;;;3.10;;
7128;SDS011;3606;52.930;8.644;2023-12-22T13:49:41;9.53;;;2.83;;
7128;SDS011;3606;52.930;8.644;2023-12-22T13:52:16;8.60;;;2.50;;
7128;SDS011;3606;52.930;8.644;2023-12-22T13:54:50;7.77;;;2.70;;
7128;SDS011;3606;52.930;8.644;2023-12-22T13:57:22;8.53;;;2.70;;
7128;SDS011;3606;52.930;8.644;2023-12-22T13:59:48;8.37;;;2.63;;
7128;SDS011;3606;52.930;8.644;2023-12-22T14:02:13;10.37;;;3.20;;
7128;SDS011;3606;52.930;8.644;2023-12-22T14:04:39;7.40;;;2.50;;
7128;SDS011;3606;52.930;8.644;2023-12-22T14:07:05;6.17;;;2.20;;
7128;SDS011;3606;52.930;8.644;2023-12-22T14:09:30;7.37;;;2.47;;
7128;SDS011;3606;52.930;8.644;2023-12-22T14:11:58;8.80;;;2.73;;
7128;SDS011;3606;52.930;8.644;2023-12-22T14:14:24;7.40;;;2.57;;
7128;SDS011;3606;52.930;8.644;2023-12-22T14:16:49;18.50;;;3.17;;
7128;SDS011;3606;52.930;8.644;2023-12-22T14:19:15;9.13;;;2.60;;
7128;SDS011;3606;52.930;8.644;2023-12-22T14:21:41;12.23;;;2.87;;
7128;SDS011;3606;52.930;8.644;2023-12-22T14:24:06;5.27;;;2.50;;
7128;SDS011;3606;52.930;8.644;2023-12-22T14:26:32;11.33;;;2.70;;
7128;SDS011;3606;52.930;8.644;2023-12-22T14:28:58;7.33;;;2.63;;
7128;SDS011;3606;52.930;8.644;2023-12-22T14:31:24;11.27;;;2.67;;
7128;SDS011;3606;52.930;8.644;2023-12-22T14:33:49;9.23;;;2.20;;
7128;SDS011;3606;52.930;8.644;2023-12-22T14:36:15;7.77;;;2.63;;
7128;SDS011;3606;52.930;8.644;2023-12-22T14:38:42;8.53;;;2.60;;
7128;SDS011;3606;52.930;8.644;2023-12-22T14:41:07;7.23;;;2.50;;
7128;SDS011;3606;52.930;8.644;2023-12-22T14:43:33;10.43;;;2.37;;
7128;SDS011;3606;52.930;8.644;2023-12-22T14:45:59;7.83;;;2.30;;
7128;SDS011;3606;52.930;8.644;2023-12-22T14:48:24;9.07;;;2.63;;
7128;SDS011;3606;52.930;8.644;2023-12-22T14:50:50;10.47;;;3.00;;
7128;SDS011;3606;52.930;8.644;2023-12-22T14:53:15;6.53;;;1.83;;
7128;SDS011;3606;52.930;8.644;2023-12-22T14:55:41;9.17;;;2.13;;
7128;SDS011;3606;52.930;8.644;2023-12-22T14:58:07;10.07;;;2.20;;
7128;SDS011;3606;52.930;8.644;2023-12-22T15:00:34;8.07;;;2.33;;
7128;SDS011;3606;52.930;8.644;2023-12-22T15:03:00;5.90;;;2.43;;
7128;SDS011;3606;52.930;8.644;2023-12-22T15:05:26;8.90;;;2.43;;
7128;SDS011;3606;52.930;8.644;2023-12-22T15:07:54;8.20;;;2.47;;